createdAt,value
2024-02-22T00:01:12.574Z,5.40
2024-02-22T00:03:39.527Z,6.40
2024-02-22T00:06:06.669Z,5.90
2024-02-22T00:08:33.384Z,5.97
2024-02-22T00:11:00.329Z,4.40
2024-02-22T00:13:27.240Z,3.53
2024-02-22T00:15:54.067Z,3.80
2024-02-22T00:18:21.349Z,3.95
2024-02-22T00:20:48.281Z,2.97
2024-02-22T00:23:14.965Z,2.97
2024-02-22T00:25:41.662Z,2.80
2024-02-22T00:28:08.411Z,2.78
2024-02-22T00:30:35.082Z,2.50
2024-02-22T00:33:01.737Z,2.30
2024-02-22T00:35:28.587Z,2.53
2024-02-22T00:37:55.337Z,2.20
2024-02-22T00:40:22.088Z,2.20
2024-02-22T00:42:48.815Z,3.17
2024-02-22T00:45:17.177Z,3.75
2024-02-22T00:47:43.887Z,2.20
2024-02-22T00:50:10.920Z,2.38
2024-02-22T00:52:37.657Z,2.00
2024-02-22T00:55:04.745Z,2.25
2024-02-22T00:57:31.421Z,1.42
2024-02-22T00:59:58.053Z,4.47
2024-02-22T01:02:29.634Z,2.47
2024-02-22T01:04:56.274Z,2.63
2024-02-22T01:07:22.994Z,2.17
2024-02-22T01:09:50.018Z,1.73
2024-02-22T01:12:16.844Z,1.58
2024-02-22T01:14:43.601Z,1.58
2024-02-22T01:17:10.429Z,1.80
2024-02-22T01:19:37.222Z,1.42
2024-02-22T01:22:03.965Z,1.75
2024-02-22T01:24:30.863Z,1.40
2024-02-22T01:26:57.586Z,2.40
2024-02-22T01:29:24.221Z,1.88
2024-02-22T01:31:51.834Z,1.23
2024-02-22T01:34:18.609Z,1.30
2024-02-22T01:36:45.404Z,1.20
2024-02-22T01:39:13.091Z,1.02
2024-02-22T01:41:39.763Z,0.85
2024-02-22T01:44:06.469Z,1.35
2024-02-22T01:46:33.937Z,1.00
2024-02-22T01:49:01.789Z,1.30
2024-02-22T01:51:29.170Z,0.82
2024-02-22T01:53:56.164Z,1.10
2024-02-22T01:56:23.367Z,0.90
2024-02-22T01:58:50.991Z,1.85
2024-02-22T02:01:25.978Z,0.70
2024-02-22T02:03:53.030Z,0.77
2024-02-22T02:06:21.248Z,2.97
2024-02-22T02:08:48.763Z,3.13
2024-02-22T02:11:15.863Z,0.90
2024-02-22T02:13:42.676Z,0.95
2024-02-22T02:16:09.540Z,1.17
2024-02-22T02:18:36.395Z,1.10
2024-02-22T02:21:12.252Z,1.08
2024-02-22T02:23:49.146Z,0.85
2024-02-22T02:26:15.975Z,1.20
2024-02-22T02:28:42.886Z,0.90
2024-02-22T02:31:09.645Z,1.23
2024-02-22T02:33:36.335Z,1.23
2024-02-22T02:36:03.067Z,1.23
2024-02-22T02:38:29.725Z,1.42
2024-02-22T02:40:56.524Z,0.98
2024-02-22T02:43:23.147Z,0.70
2024-02-22T02:45:49.771Z,1.23
2024-02-22T02:48:20.452Z,0.80
2024-02-22T02:50:48.110Z,0.85
2024-02-22T02:53:14.951Z,1.13
2024-02-22T02:55:41.771Z,1.10
2024-02-22T02:58:09.579Z,1.00
2024-02-22T03:00:36.722Z,1.00
2024-02-22T03:03:03.873Z,0.75
2024-02-22T03:05:30.873Z,0.80
2024-02-22T03:07:57.682Z,1.08
2024-02-22T03:10:24.915Z,2.45
2024-02-22T03:12:52.633Z,0.80
2024-02-22T03:15:19.348Z,1.50
2024-02-22T03:17:46.026Z,0.55
2024-02-22T03:20:12.953Z,0.82
2024-02-22T03:22:42.808Z,0.80
2024-02-22T03:25:10.145Z,0.75
2024-02-22T03:27:37.097Z,0.85
2024-02-22T03:30:09.963Z,0.70
2024-02-22T03:32:37.688Z,0.70
2024-02-22T03:35:07.442Z,0.90
2024-02-22T03:37:34.873Z,0.80
2024-02-22T03:40:01.790Z,1.45
2024-02-22T03:42:29.576Z,1.35
2024-02-22T03:44:56.200Z,1.00
2024-02-22T03:47:22.939Z,0.98
2024-02-22T03:49:49.672Z,1.05
2024-02-22T03:52:16.361Z,0.70
2024-02-22T03:54:43.071Z,1.08
2024-02-22T03:57:09.808Z,0.77
2024-02-22T03:59:36.475Z,0.85
2024-02-22T04:02:04.199Z,0.70
2024-02-22T04:04:31.213Z,1.02
2024-02-22T04:06:59.438Z,0.80
2024-02-22T04:09:26.174Z,0.73
2024-02-22T04:11:53.025Z,0.82
2024-02-22T04:14:19.829Z,0.90
2024-02-22T04:16:46.604Z,0.70
2024-02-22T04:19:15.132Z,0.75
2024-02-22T04:21:44.997Z,0.60
2024-02-22T04:24:11.700Z,0.50
2024-02-22T04:26:47.956Z,0.60
2024-02-22T04:29:16.141Z,0.90
2024-02-22T04:31:44.431Z,0.65
2024-02-22T04:34:11.040Z,0.80
2024-02-22T04:36:41.746Z,0.68
2024-02-22T04:39:11.738Z,0.50
2024-02-22T04:41:38.764Z,0.43
2024-02-22T04:44:06.161Z,0.60
2024-02-22T04:46:36.809Z,0.60
2024-02-22T04:49:10.626Z,0.68
2024-02-22T04:51:37.702Z,0.85
2024-02-22T04:54:05.169Z,0.55
2024-02-22T04:56:32.183Z,0.40
2024-02-22T04:58:59.272Z,0.43
2024-02-22T05:01:27.598Z,0.52
2024-02-22T05:03:54.692Z,0.43
2024-02-22T05:06:21.808Z,0.40
2024-02-22T05:08:48.488Z,0.65
2024-02-22T05:11:15.283Z,0.30
2024-02-22T05:13:43.518Z,0.28
2024-02-22T05:16:10.320Z,0.50
2024-02-22T05:18:38.545Z,0.20
2024-02-22T05:21:05.797Z,0.88
2024-02-22T05:23:32.445Z,0.77
2024-02-22T05:25:59.200Z,0.30
2024-02-22T05:28:25.976Z,0.50
2024-02-22T05:30:53.008Z,0.73
2024-02-22T05:33:19.839Z,0.38
2024-02-22T05:35:46.561Z,0.35
2024-02-22T05:38:13.335Z,0.30
2024-02-22T05:40:42.144Z,0.40
2024-02-22T05:43:09.519Z,0.40
2024-02-22T05:45:47.952Z,0.52
2024-02-22T05:48:15.402Z,1.23
2024-02-22T05:50:42.243Z,0.28
2024-02-22T05:53:10.524Z,0.30
2024-02-22T05:55:37.373Z,0.20
2024-02-22T05:58:05.624Z,0.82
2024-02-22T06:00:32.957Z,0.40
2024-02-22T06:02:59.625Z,0.60
2024-02-22T06:05:26.419Z,0.40
2024-02-22T06:07:53.121Z,2.25
2024-02-22T06:10:19.849Z,1.45
2024-02-22T06:12:46.484Z,0.68
2024-02-22T06:15:13.254Z,0.73
2024-02-22T06:17:40.066Z,0.57
2024-02-22T06:20:07.740Z,1.45
2024-02-22T06:22:34.764Z,0.75
2024-02-22T06:25:01.542Z,1.20
2024-02-22T06:27:29.737Z,0.50
2024-02-22T06:29:56.555Z,0.50
2024-02-22T06:32:25.081Z,0.93
2024-02-22T06:34:52.232Z,1.58
2024-02-22T06:37:19.636Z,1.13
2024-02-22T06:39:46.287Z,1.17
2024-02-22T06:42:13.183Z,2.40
2024-02-22T06:44:39.826Z,1.85
2024-02-22T06:47:06.704Z,1.95
2024-02-22T06:49:34.114Z,0.68
2024-02-22T06:52:01.649Z,0.57
2024-02-22T06:54:29.090Z,0.95
2024-02-22T06:56:55.720Z,0.63
2024-02-22T06:59:22.541Z,1.35
2024-02-22T07:01:50.101Z,1.20
2024-02-22T07:04:17.295Z,3.92
2024-02-22T07:06:44.123Z,0.50
2024-02-22T07:09:12.707Z,0.90
2024-02-22T07:11:39.523Z,0.52
2024-02-22T07:14:06.849Z,0.43
2024-02-22T07:16:34.221Z,1.17
2024-02-22T07:19:01.809Z,0.50
2024-02-22T07:21:35.496Z,0.50
2024-02-22T07:24:04.249Z,1.85
2024-02-22T07:26:34.006Z,0.63
2024-02-22T07:29:00.789Z,0.65
2024-02-22T07:31:27.590Z,0.55
2024-02-22T07:33:55.031Z,0.82
2024-02-22T07:36:22.229Z,0.73
2024-02-22T07:38:48.971Z,0.88
2024-02-22T07:41:18.614Z,0.70
2024-02-22T07:43:46.790Z,0.52
2024-02-22T07:46:14.226Z,0.50
2024-02-22T07:48:43.728Z,0.98
2024-02-22T07:51:11.042Z,1.08
2024-02-22T07:53:38.569Z,0.82
2024-02-22T07:56:07.088Z,0.63
2024-02-22T07:58:50.420Z,0.60
2024-02-22T08:01:17.255Z,0.60
2024-02-22T08:03:44.651Z,0.75
2024-02-22T08:06:14.606Z,0.43
2024-02-22T08:11:10.390Z,0.40
2024-02-22T08:13:37.174Z,0.63
2024-02-22T08:16:06.744Z,0.47
2024-02-22T08:18:37.375Z,0.52
2024-02-22T08:21:04.586Z,0.50
2024-02-22T08:23:31.370Z,0.43
2024-02-22T08:25:58.865Z,0.60
2024-02-22T08:28:27.322Z,1.27
2024-02-22T08:30:53.941Z,0.40
2024-02-22T08:33:21.853Z,0.50
2024-02-22T08:35:48.673Z,0.50
2024-02-22T08:38:15.797Z,0.63
2024-02-22T08:40:42.666Z,0.40
2024-02-22T08:43:09.664Z,0.30
2024-02-22T08:45:37.058Z,1.00
2024-02-22T08:48:04.168Z,0.47
2024-02-22T08:50:31.009Z,1.75
2024-02-22T08:52:57.792Z,1.23
2024-02-22T08:55:26.073Z,1.75
2024-02-22T08:57:54.235Z,0.90
2024-02-22T09:00:22.127Z,0.55
2024-02-22T09:02:49.639Z,0.70
2024-02-22T09:05:16.870Z,1.60
2024-02-22T09:07:44.037Z,1.52
2024-02-22T09:10:11.274Z,0.60
2024-02-22T09:12:41.476Z,0.85
2024-02-22T09:17:36.859Z,0.80
2024-02-22T09:20:05.414Z,0.85
2024-02-22T09:22:32.989Z,0.77
2024-02-22T09:24:59.815Z,0.40
2024-02-22T09:27:26.858Z,0.57
2024-02-22T09:29:55.303Z,0.30
2024-02-22T09:32:22.178Z,0.32
2024-02-22T09:34:48.975Z,0.30
2024-02-22T09:37:15.946Z,0.30
2024-02-22T09:39:44.767Z,0.70
2024-02-22T09:42:12.735Z,0.68
2024-02-22T09:44:39.701Z,0.73
2024-02-22T09:47:09.257Z,0.88
2024-02-22T09:49:36.120Z,0.82
2024-02-22T09:52:03.566Z,0.30
2024-02-22T09:54:30.212Z,0.47
2024-02-22T09:56:57.192Z,0.77
2024-02-22T09:59:25.079Z,0.85
2024-02-22T10:01:52.126Z,0.40
2024-02-22T10:04:24.413Z,0.50
2024-02-22T10:06:51.645Z,0.50
2024-02-22T10:09:18.361Z,0.43
2024-02-22T10:11:49.989Z,0.70
2024-02-22T10:14:16.891Z,0.55
2024-02-22T10:16:47.172Z,0.40
2024-02-22T10:21:41.050Z,0.52
2024-02-22T10:24:09.570Z,0.35
2024-02-22T10:26:36.433Z,1.40
2024-02-22T10:29:10.217Z,0.40
2024-02-22T10:31:46.514Z,1.67
2024-02-22T10:34:14.436Z,1.27
2024-02-22T10:36:42.048Z,0.47
2024-02-22T10:39:12.210Z,0.40
2024-02-22T10:41:38.944Z,0.70
2024-02-22T10:44:06.603Z,0.40
2024-02-22T10:46:36.926Z,0.40
2024-02-22T10:51:42.412Z,0.40
2024-02-22T10:54:11.634Z,0.30
2024-02-22T10:56:46.707Z,0.50
2024-02-22T10:59:16.413Z,0.52
2024-02-22T11:01:43.867Z,0.65
2024-02-22T11:04:12.232Z,1.38
2024-02-22T11:06:40.268Z,1.40
2024-02-22T11:09:18.070Z,1.65
2024-02-22T11:11:46.623Z,1.30
2024-02-22T11:14:15.316Z,0.73
2024-02-22T11:16:42.451Z,1.05
2024-02-22T11:19:13.728Z,0.85
2024-02-22T11:21:44.063Z,0.40
2024-02-22T11:26:39.111Z,0.40
2024-02-22T11:29:05.952Z,0.88
2024-02-22T11:31:32.899Z,0.50
2024-02-22T11:34:01.240Z,0.45
2024-02-22T11:36:30.300Z,1.02
2024-02-22T11:39:07.536Z,0.50
2024-02-22T11:41:36.401Z,0.65
2024-02-22T11:44:09.360Z,0.50
2024-02-22T11:46:40.195Z,0.55
2024-02-22T11:49:07.885Z,1.10
2024-02-22T11:51:34.903Z,1.27
2024-02-22T11:54:01.615Z,0.85
2024-02-22T11:56:28.764Z,0.70
2024-02-22T11:58:56.545Z,0.70
2024-02-22T12:01:24.292Z,0.80
2024-02-22T12:03:54.747Z,1.38
2024-02-22T12:06:21.635Z,1.38
2024-02-22T12:08:51.760Z,0.70
2024-02-22T12:11:19.202Z,1.42
2024-02-22T12:13:58.741Z,3.05
2024-02-22T12:16:26.594Z,1.10
2024-02-22T12:18:53.711Z,4.15
2024-02-22T12:21:24.445Z,1.20
2024-02-22T12:23:51.390Z,1.23
2024-02-22T12:26:20.834Z,1.00
2024-02-22T12:28:51.632Z,5.90
2024-02-22T12:31:20.126Z,4.22
2024-02-22T12:33:53.248Z,10.18
2024-02-22T12:36:22.182Z,12.00
2024-02-22T12:38:49.416Z,2.15
2024-02-22T12:41:17.428Z,2.42
2024-02-22T12:43:49.192Z,0.88
2024-02-22T12:46:18.893Z,1.17
2024-02-22T12:48:45.755Z,2.13
2024-02-22T12:51:18.463Z,1.10
2024-02-22T12:53:48.444Z,2.95
2024-02-22T12:56:15.633Z,1.08
2024-02-22T12:58:43.775Z,1.05
2024-02-22T13:01:10.696Z,1.77
2024-02-22T13:03:37.518Z,1.20
2024-02-22T13:06:04.638Z,1.10
2024-02-22T13:08:36.009Z,1.15
2024-02-22T13:11:04.940Z,1.10
2024-02-22T13:13:31.634Z,1.85
2024-02-22T13:16:01.093Z,1.10
2024-02-22T13:18:27.892Z,0.87
2024-02-22T13:20:54.610Z,1.60
2024-02-22T13:23:24.164Z,1.27
2024-02-22T13:25:51.726Z,0.90
2024-02-22T13:28:18.404Z,1.23
2024-02-22T13:30:45.056Z,1.42
2024-02-22T13:33:11.822Z,1.30
2024-02-22T13:35:38.571Z,1.30
2024-02-22T13:38:05.256Z,1.63
2024-02-22T13:40:31.975Z,1.38
2024-02-22T13:42:58.650Z,3.97
2024-02-22T13:45:25.308Z,1.23
2024-02-22T13:47:52.141Z,1.30
2024-02-22T13:50:19.568Z,1.70
2024-02-22T13:52:46.509Z,1.20
2024-02-22T13:55:13.638Z,1.70
2024-02-22T13:57:40.851Z,1.23
2024-02-22T14:00:08.075Z,1.60
2024-02-22T14:02:39.343Z,1.20
2024-02-22T14:05:06.212Z,1.13
2024-02-22T14:07:32.915Z,1.30
2024-02-22T14:10:01.278Z,0.90
2024-02-22T14:12:28.005Z,1.50
2024-02-22T14:14:54.707Z,1.58
2024-02-22T14:17:25.731Z,1.67
2024-02-22T14:19:52.883Z,1.67
2024-02-22T14:22:19.604Z,2.25
2024-02-22T14:24:46.217Z,1.20
2024-02-22T14:27:14.074Z,2.08
2024-02-22T14:29:43.651Z,5.53
2024-02-22T14:32:12.772Z,1.52
2024-02-22T14:34:40.206Z,1.75
2024-02-22T14:37:07.351Z,1.63
2024-02-22T14:39:35.691Z,1.38
2024-02-22T14:42:02.655Z,3.72
2024-02-22T14:44:29.356Z,1.65
2024-02-22T14:46:57.152Z,2.15
2024-02-22T14:49:24.694Z,1.35
2024-02-22T14:51:51.415Z,2.30
2024-02-22T14:54:18.055Z,1.58
2024-02-22T14:56:49.701Z,1.80
2024-02-22T14:59:17.751Z,2.63
2024-02-22T15:01:45.092Z,2.42
2024-02-22T15:04:12.104Z,1.42
2024-02-22T15:06:46.141Z,2.38
2024-02-22T15:09:17.222Z,3.70
2024-02-22T15:11:47.083Z,3.85
2024-02-22T15:14:14.046Z,1.17
2024-02-22T15:16:41.380Z,2.00
2024-02-22T15:19:08.429Z,2.72
2024-02-22T15:21:38.257Z,2.67
2024-02-22T15:24:06.608Z,3.72
2024-02-22T15:26:34.332Z,3.28
2024-02-22T15:29:01.120Z,2.72
2024-02-22T15:31:27.888Z,1.77
2024-02-22T15:34:04.518Z,4.63
2024-02-22T15:36:34.597Z,2.22
2024-02-22T15:39:01.472Z,2.20
2024-02-22T15:41:29.702Z,4.18
2024-02-22T15:43:56.984Z,4.55
2024-02-22T15:46:23.781Z,3.60
2024-02-22T15:48:52.033Z,4.35
2024-02-22T15:51:18.744Z,4.72
2024-02-22T15:53:45.432Z,4.22
2024-02-22T15:56:12.259Z,4.32
2024-02-22T15:58:39.080Z,2.85
2024-02-22T16:01:08.638Z,5.95
2024-02-22T16:03:37.405Z,3.55
2024-02-22T16:06:04.868Z,4.00
2024-02-22T16:08:31.525Z,4.15
2024-02-22T16:10:59.333Z,3.42
2024-02-22T16:13:26.144Z,4.32
2024-02-22T16:15:54.606Z,4.05
2024-02-22T16:18:22.015Z,3.25
2024-02-22T16:20:48.738Z,4.82
2024-02-22T16:23:23.758Z,4.18
2024-02-22T16:25:53.829Z,3.97
2024-02-22T16:28:29.459Z,4.65
2024-02-22T16:30:59.065Z,8.57
2024-02-22T16:33:27.827Z,4.80
2024-02-22T16:35:54.912Z,4.80
2024-02-22T16:38:24.538Z,4.22
2024-02-22T16:40:51.430Z,4.03
2024-02-22T16:43:18.154Z,2.50
2024-02-22T16:45:45.068Z,4.32
2024-02-22T16:48:11.897Z,4.20
2024-02-22T16:50:38.879Z,4.40
2024-02-22T16:53:05.529Z,2.55
2024-02-22T16:55:32.461Z,6.82
2024-02-22T16:58:00.964Z,4.75
2024-02-22T17:00:28.508Z,3.42
2024-02-22T17:02:55.152Z,4.13
2024-02-22T17:05:21.980Z,3.85
2024-02-22T17:07:48.716Z,5.72
2024-02-22T17:10:18.576Z,4.15
2024-02-22T17:12:45.537Z,3.03
2024-02-22T17:15:12.205Z,4.13
2024-02-22T17:17:40.784Z,5.65
2024-02-22T17:20:08.166Z,7.47
2024-02-22T17:22:35.617Z,6.18
2024-02-22T17:25:02.348Z,3.58
2024-02-22T17:27:29.111Z,6.38
2024-02-22T17:29:55.715Z,6.13
2024-02-22T17:32:23.006Z,5.30
2024-02-22T17:34:50.272Z,9.48
2024-02-22T17:37:17.084Z,4.22
2024-02-22T17:39:43.883Z,4.68
2024-02-22T17:42:11.005Z,7.57
2024-02-22T17:44:37.656Z,6.95
2024-02-22T17:47:05.015Z,6.80
2024-02-22T17:49:31.708Z,6.45
2024-02-22T17:52:01.514Z,3.92
2024-02-22T17:54:28.306Z,8.43
2024-02-22T17:56:55.041Z,6.15
2024-02-22T17:59:21.745Z,4.85
2024-02-22T18:01:49.044Z,5.93
2024-02-22T18:04:16.003Z,5.85
2024-02-22T18:06:42.666Z,6.25
2024-02-22T18:09:10.310Z,5.78
2024-02-22T18:11:37.249Z,8.45
2024-02-22T18:14:04.652Z,5.65
2024-02-22T18:16:31.530Z,6.10
2024-02-22T18:18:58.372Z,6.15
2024-02-22T18:21:25.948Z,5.80
2024-02-22T18:23:52.651Z,8.80
2024-02-22T18:26:19.708Z,9.13
2024-02-22T18:28:46.455Z,9.95
2024-02-22T18:31:13.160Z,6.80
2024-02-22T18:33:40.052Z,6.78
2024-02-22T18:36:08.390Z,5.90
2024-02-22T18:38:35.176Z,5.05
2024-02-22T18:41:02.263Z,3.60
2024-02-22T18:43:29.195Z,5.90
2024-02-22T18:45:55.813Z,7.80
2024-02-22T18:48:22.788Z,5.55
2024-02-22T18:50:49.503Z,4.50
2024-02-22T18:53:16.192Z,5.05
2024-02-22T18:55:42.877Z,4.45
2024-02-22T18:58:09.960Z,3.65
2024-02-22T19:00:37.220Z,10.25
2024-02-22T19:03:17.258Z,5.22
2024-02-22T19:05:44.092Z,4.00
2024-02-22T19:08:10.979Z,3.75
2024-02-22T19:10:39.828Z,2.72
2024-02-22T19:13:06.845Z,3.05
2024-02-22T19:15:33.524Z,3.88
2024-02-22T19:18:00.275Z,2.67
2024-02-22T19:20:27.088Z,2.92
2024-02-22T19:22:53.949Z,1.90
2024-02-22T19:25:20.587Z,2.67
2024-02-22T19:27:47.798Z,1.70
2024-02-22T19:30:15.231Z,2.58
2024-02-22T19:32:43.970Z,1.95
2024-02-22T19:35:19.397Z,2.83
2024-02-22T19:37:47.285Z,2.05
2024-02-22T19:40:15.193Z,3.53
2024-02-22T19:42:42.051Z,1.92
2024-02-22T19:45:08.990Z,2.58
2024-02-22T19:47:35.938Z,1.88
2024-02-22T19:50:04.711Z,1.60
2024-02-22T19:52:31.623Z,1.55
2024-02-22T19:54:58.288Z,2.95
2024-02-22T19:57:25.254Z,0.68
2024-02-22T19:59:52.009Z,2.22
2024-02-22T20:02:18.912Z,1.05
2024-02-22T20:04:45.982Z,0.60
2024-02-22T20:07:13.145Z,1.65
2024-02-22T20:09:40.817Z,1.95
2024-02-22T20:12:08.124Z,0.52
2024-02-22T20:14:35.061Z,1.30
2024-02-22T20:17:02.207Z,0.47
2024-02-22T20:19:28.908Z,2.85
2024-02-22T20:21:55.556Z,0.70
2024-02-22T20:24:22.194Z,0.80
2024-02-22T20:26:48.825Z,1.15
2024-02-22T20:29:15.481Z,1.98
2024-02-22T20:31:44.964Z,1.52
2024-02-22T20:34:11.881Z,0.77
2024-02-22T20:36:38.994Z,1.20
2024-02-22T20:39:09.601Z,0.80
2024-02-22T20:41:36.397Z,1.52
2024-02-22T20:44:03.542Z,0.68
2024-02-22T20:46:30.625Z,1.42
2024-02-22T20:48:57.800Z,1.15
2024-02-22T20:51:29.514Z,1.27
2024-02-22T20:53:57.459Z,2.15
2024-02-22T20:56:24.688Z,1.25
2024-02-22T20:58:51.582Z,1.83
2024-02-22T21:01:18.767Z,1.15
2024-02-22T21:03:45.455Z,1.00
2024-02-22T21:06:20.168Z,3.13
2024-02-22T21:08:48.448Z,0.50
2024-02-22T21:11:15.633Z,1.00
2024-02-22T21:13:42.854Z,1.45
2024-02-22T21:16:09.619Z,0.45
2024-02-22T21:18:36.536Z,0.50
2024-02-22T21:21:07.460Z,1.90
2024-02-22T21:23:34.597Z,4.35
2024-02-22T21:26:01.626Z,0.85
2024-02-22T21:28:29.108Z,0.70
2024-02-22T21:30:55.938Z,1.50
2024-02-22T21:33:26.010Z,1.38
2024-02-22T21:38:19.648Z,0.68
2024-02-22T21:40:46.855Z,0.88
2024-02-22T21:43:13.556Z,1.30
2024-02-22T21:45:40.197Z,0.70
2024-02-22T21:48:10.779Z,5.30
2024-02-22T21:50:38.632Z,1.67
2024-02-22T21:53:08.132Z,2.50
2024-02-22T21:55:35.552Z,0.63
2024-02-22T21:58:02.359Z,2.15
2024-02-22T22:00:28.969Z,1.30
2024-02-22T22:02:55.740Z,2.47
2024-02-22T22:05:23.492Z,2.60
2024-02-22T22:07:50.889Z,2.50
2024-02-22T22:10:17.680Z,1.05
2024-02-22T22:12:44.352Z,1.58
2024-02-22T22:15:11.178Z,2.50
2024-02-22T22:17:37.930Z,3.60
2024-02-22T22:20:06.630Z,3.58
2024-02-22T22:22:33.490Z,1.88
2024-02-22T22:25:00.532Z,3.03
2024-02-22T22:27:27.228Z,3.78
2024-02-22T22:29:53.930Z,3.58
2024-02-22T22:32:22.083Z,3.25
2024-02-22T22:34:48.859Z,3.50
2024-02-22T22:37:16.495Z,3.20
2024-02-22T22:39:43.507Z,7.57
2024-02-22T22:42:11.819Z,4.25
2024-02-22T22:44:43.018Z,2.20
2024-02-22T22:47:10.081Z,5.55
2024-02-22T22:49:37.036Z,3.47
2024-02-22T22:52:03.975Z,8.57
2024-02-22T22:54:31.238Z,4.47
2024-02-22T22:56:58.070Z,4.53
2024-02-22T22:59:26.218Z,4.32
2024-02-22T23:01:59.163Z,3.33
2024-02-22T23:04:26.130Z,3.50
2024-02-22T23:06:53.327Z,2.65
2024-02-22T23:09:26.015Z,4.15
2024-02-22T23:11:53.088Z,3.80
2024-02-22T23:14:20.658Z,5.53
2024-02-22T23:16:48.257Z,2.65
2024-02-22T23:19:15.059Z,2.60
2024-02-22T23:21:41.958Z,3.65
2024-02-22T23:24:09.408Z,2.88
2024-02-22T23:26:38.659Z,3.20
2024-02-22T23:29:05.334Z,2.25
2024-02-22T23:31:31.962Z,3.60
2024-02-22T23:33:58.762Z,4.28
2024-02-22T23:36:25.484Z,4.50
2024-02-22T23:38:52.139Z,4.03
2024-02-22T23:41:25.439Z,6.32
2024-02-22T23:43:59.041Z,2.83
2024-02-22T23:46:25.899Z,5.28
2024-02-22T23:48:52.891Z,6.35
2024-02-22T23:51:19.816Z,3.92
2024-02-22T23:53:46.534Z,7.55
2024-02-22T23:56:14.005Z,4.10
2024-02-22T23:58:41.155Z,5.25
